Flight Track Log - Related Links

Times and Time Zones

All times are in EDT time to prevent confusion due to time zone crossing. See the ACA295 flight status page for this flight to view local times or setup timezone preferences in your user account.

Time Position Orientation Groundspeed Altitude Reporting Facility
EDT Latitude Longitude Course Direction KTS MPH feet Rate Location/Type
Sat 08:17:22 AM 49.8500 -97.2500 243° Southwest 170 196 2,700  Level Winnipeg Center
Sat 08:18:22 AM 49.7833 -97.2167 162° South 230 265 4,500 2,150 Climbing Winnipeg Center
Sat 08:19:00 AM 49.7845 -97.5465 243° Southwest  Level FlightAware Approximate
Sat 08:19:22 AM 49.7500 -97.3333 246° West 270 311 7,000  Level Winnipeg Center
Sat 08:20:00 AM 49.7216 -97.6982 237° Southwest  Level FlightAware Approximate
Sat 08:20:22 AM 49.7000 -97.4333 232° Southwest 290 334 9,300  Level Winnipeg Center
Sat 08:21:00 AM 49.6630 -97.8538 241° Southwest  Level FlightAware Approximate
Sat 08:21:22 AM 49.6667 -97.5667 249° West 310 357 11,000  Level Winnipeg Center
Sat 08:22:00 AM 49.8416 -97.3753 243° Southwest  Level FlightAware Approximate
Sat 08:22:22 AM 49.6167 -97.6833 237° Southwest 350 403 13,200  Level Winnipeg Center
Sat 08:23:22 AM 49.5667 -97.8167 240° Southwest 360 414 15,400 2,250 Climbing Winnipeg Center
Sat 08:24:22 AM 49.5000 -97.9667 236° Southwest 370 426 17,700 1,950 Climbing Winnipeg Center
Sat 08:25:22 AM 49.4667 -98.1000 249° West 380 437 19,300 1,700 Climbing Winnipeg Center
Sat 08:26:22 AM 49.4000 -98.2500 236° Southwest 390 449 21,100 1,650 Climbing Winnipeg Center
Sat 08:27:22 AM 49.3500 -98.4000 243° Southwest 400 460 22,600 1,450 Climbing Winnipeg Center
Sat 08:28:22 AM 49.3000 -98.5500 243° Southwest 410 472 24,000 1,450 Climbing Winnipeg Center
Sat 08:29:22 AM 49.2500 -98.7000 243° Southwest 420 483 25,500 1,400 Climbing Winnipeg Center
Sat 08:30:22 AM 49.1833 -98.8667 239° Southwest 420 483 26,800 1,150 Climbing Winnipeg Center
Sat 08:31:22 AM 49.1167 -99.0333 239° Southwest 430 495 27,800 1,050 Climbing Winnipeg Center
Sat 08:32:22 AM 49.0667 -99.1833 243° Southwest 430 495 28,900 1,000 Climbing Winnipeg Center
Sat 08:33:22 AM 49.0000 -99.3667 241° Southwest 440 506 29,800 800 Climbing Winnipeg Center
Sat 08:34:22 AM 48.9333 -99.5167 236° Southwest 450 518 30,500 900 Climbing Winnipeg Center
Sat 08:35:22 AM 48.9167 -99.7167 263° West 450 518 31,600 950 Climbing Winnipeg Center
Sat 08:36:22 AM 48.8833 -99.8833 253° West 460 529 32,400 850 Climbing Winnipeg Center
Sat 08:37:22 AM 48.8667 -100.1000 263° West 460 529 33,300 800 Climbing Winnipeg Center
Sat 08:38:22 AM 48.8667 -100.2667 270° West 460 529 34,000 650 Climbing Winnipeg Center
Sat 08:39:22 AM 48.8333 -100.4667 256° West 460 529 34,600 650 Climbing Winnipeg Center
Sat 08:40:22 AM 48.8333 -100.6833 270° West 460 529 35,300 600 Climbing Winnipeg Center
Sat 08:41:22 AM 48.8167 -100.8500 261° West 460 529 35,800 350 Climbing Winnipeg Center
Sat 08:42:22 AM 48.8000 -101.0500 263° West 460 529 36,000 100 Climbing Winnipeg Center
Sat 08:43:22 AM 48.7833 -101.2333 262° West 460 529 36,000  Level Winnipeg Center
Sat 08:44:22 AM 48.7667 -101.4333 263° West 450 518 36,000  Level Winnipeg Center
Sat 08:45:22 AM 48.7500 -101.6167 262° West 450 518 36,000  Level Winnipeg Center
Sat 08:46:22 AM 48.7333 -101.8167 263° West 440 506 36,000  Level Winnipeg Center
Sat 08:47:22 AM 48.7167 -101.9833 261° West 450 518 36,000  Level Winnipeg Center
Sat 08:48:22 AM 48.7000 -102.1833 263° West 450 518 36,000  Level Winnipeg Center
Sat 08:49:22 AM 48.6833 -102.3667 262° West 440 506 36,000  Level Winnipeg Center
Sat 08:50:22 AM 48.6667 -102.5667 263° West 450 518 36,000  Level Winnipeg Center
Sat 08:51:22 AM 48.6500 -102.7333 261° West 450 518 36,000  Level Winnipeg Center
Sat 08:52:10 AM 48.6533 -102.8769 272° West 451 519 36,000  Level Salt Lake Center
Sat 08:53:11 AM 48.6347 -103.0625 261° West 451 519 36,000  Level Salt Lake Center
Sat 08:54:11 AM 48.6150 -103.2461 261° West 451 519 36,000  Level Salt Lake Center
Sat 08:54:41 AM 48.6067 -103.3233 261° West 449 517 36,000  Level Minneapolis Center
Sat 08:55:12 AM 48.5975 -103.4292 263° West 449 517 36,000  Level Salt Lake Center
Sat 08:56:12 AM 48.5781 -103.6081 261° West 443 510 36,000  Level Salt Lake Center
Sat 08:57:13 AM 48.5586 -103.7842 261° West 437 503 36,000  Level Salt Lake Center
Sat 08:58:13 AM 48.5394 -103.9617 261° West 436 502 36,000  Level Salt Lake Center
Sat 08:59:14 AM 48.5208 -104.1364 261° West 433 498 36,000 -49 Level Salt Lake Center
Sat 09:00:15 AM 48.5003 -104.3147 260° West 432 497 35,900 -50 Descending Salt Lake Center
Sat 09:01:15 AM 48.4803 -104.4908 260° West 432 497 35,900 50 Level Salt Lake Center
Sat 09:02:16 AM 48.4594 -104.6700 260° West 432 497 36,000 49 Climbing Salt Lake Center
Sat 09:03:17 AM 48.4386 -104.8478 260° West 433 498 36,000 -50 Level Salt Lake Center
Sat 09:04:17 AM 48.4622 -105.0267 281° West 443 510 35,900 -50 Descending Salt Lake Center
Sat 09:05:18 AM 48.4953 -105.2381 283° West 439 505 35,900 50 Level Salt Lake Center
Sat 09:06:18 AM 48.5222 -105.4139 283° West 438 504 36,000 50 Climbing Salt Lake Center
Sat 09:07:19 AM 48.5481 -105.5892 283° West 434 499 36,000 -49 Level Salt Lake Center
Sat 09:08:20 AM 48.5725 -105.7631 282° West 432 497 35,900 -50 Descending Salt Lake Center
Sat 09:09:20 AM 48.5972 -105.9353 282° West 425 489 35,900  Level Salt Lake Center
Sat 09:10:21 AM 48.6203 -106.1058 282° West 423 487 35,900  Level Salt Lake Center
Sat 09:11:22 AM 48.6439 -106.2775 282° West 421 484 35,900 49 Level Salt Lake Center
Sat 09:12:23 AM 48.6672 -106.4503 282° West 421 484 36,000 50 Climbing Salt Lake Center
Sat 09:13:23 AM 48.6922 -106.6219 283° West 421 484 36,000  Level Salt Lake Center
Sat 09:14:24 AM 48.7150 -106.7950 281° West 421 484 36,000  Level Salt Lake Center
Sat 09:15:25 AM 48.7367 -106.9656 281° West 420 483 36,000 -49 Level Salt Lake Center
Sat 09:16:26 AM 48.7597 -107.1353 282° West 418 481 35,900 -50 Descending Salt Lake Center
Sat 09:17:26 AM 48.7814 -107.3044 281° West 416 479 35,900  Level Salt Lake Center
Sat 09:18:27 AM 48.8036 -107.4758 281° West 414 476 35,900 49 Level Salt Lake Center
Sat 09:19:28 AM 48.8242 -107.6492 280° West 415 478 36,000 49 Climbing Salt Lake Center
Sat 09:20:29 AM 48.8478 -107.8369 281° West 416 479 36,000 53 Level Salt Lake Center
Sat 09:21:22 AM 48.8500 -108.0167 271° West 410 472 36,100  Climbing Winnipeg Center
Sat 09:22:22 AM 48.8667 -108.2000 278° West 410 472 36,000 -100 Descending Winnipeg Center
Sat 09:23:22 AM 48.8833 -108.3667 279° West 400 460 35,900  Descending Winnipeg Center
Sat 09:24:22 AM 48.9167 -108.5500 286° West 410 472 36,000 50 Climbing Winnipeg Center
Sat 09:25:22 AM 48.9167 -108.6833 270° West 410 472 36,000  Level Edmonton Center
Sat 09:26:22 AM 48.9500 -108.8833 284° West 420 483 36,000  Level Winnipeg Center
Sat 09:27:22 AM 48.9667 -109.0667 278° West 430 495 36,000  Level Winnipeg Center
Sat 09:28:22 AM 48.9833 -109.2667 277° West 430 495 36,000  Level Winnipeg Center
Sat 09:29:22 AM 49.0000 -109.4167 280° West 420 483 36,000  Level Winnipeg Center
Sat 09:30:22 AM 49.0167 -109.6000 278° West 420 483 36,000  Level Winnipeg Center
Sat 09:31:22 AM 49.0333 -109.7667 279° West 410 472 36,000  Level Winnipeg Center
Sat 09:32:22 AM 49.0667 -109.9333 287° West 410 472 36,000  Level Winnipeg Center
Sat 09:33:22 AM 49.0833 -110.1167 278° West 400 460 36,000  Level Winnipeg Center
Sat 09:34:22 AM 49.1000 -110.2667 280° West 400 460 36,000  Level Winnipeg Center
Sat 09:35:22 AM 49.1167 -110.4167 280° West 400 460 36,000 50 Level Edmonton Center
Sat 09:36:22 AM 49.1167 -110.6000 270° West 410 472 36,100  Climbing Edmonton Center
Sat 09:37:22 AM 49.1500 -110.7833 286° West 410 472 36,000 -50 Descending Edmonton Center
Sat 09:38:22 AM 49.1500 -110.9333 270° West 420 483 36,000  Level Edmonton Center
Sat 09:39:22 AM 49.1833 -111.1167 286° West 410 472 36,000  Level Edmonton Center
Sat 09:40:22 AM 49.1833 -111.3000 270° West 410 472 36,000  Level Edmonton Center
Sat 09:41:22 AM 49.2000 -111.4667 279° West 410 472 36,000  Level Edmonton Center
Sat 09:42:22 AM 49.2167 -111.6500 278° West 410 472 36,000  Level Edmonton Center
Sat 09:43:22 AM 49.2333 -111.8000 280° West 410 472 36,000  Level Edmonton Center
Sat 09:44:22 AM 49.2333 -111.9833 270° West 410 472 36,000  Level Edmonton Center
Sat 09:45:22 AM 49.2667 -112.1667 286° West 410 472 36,000  Level Edmonton Center
Sat 09:46:22 AM 49.2833 -112.3500 278° West 410 472 36,000  Level Edmonton Center
Sat 09:47:22 AM 49.2833 -112.5000 270° West 410 472 36,000  Level Edmonton Center
Sat 09:48:22 AM 49.3000 -112.6667 279° West 410 472 36,000  Level Edmonton Center
Sat 09:49:22 AM 49.3167 -112.8500 278° West 410 472 36,000  Level Edmonton Center
Sat 09:50:22 AM 49.3333 -113.0333 278° West 410 472 36,000  Level Edmonton Center
Sat 09:51:22 AM 49.3333 -113.2167 270° West 420 483 36,000  Level Edmonton Center
Sat 09:52:22 AM 49.3667 -113.3833 287° West 410 472 36,000  Level Edmonton Center
Sat 09:53:22 AM 49.3667 -113.5667 270° West 410 472 36,000  Level Edmonton Center
Sat 09:54:22 AM 49.3833 -113.7500 278° West 420 483 36,000  Level Edmonton Center
Sat 09:55:22 AM 49.4000 -113.9333 278° West 420 483 36,000  Level Edmonton Center
Sat 09:56:22 AM 49.4000 -114.0833 270° West 410 472 36,000  Level Edmonton Center
Sat 09:57:22 AM 49.4167 -114.2667 278° West 420 483 36,000  Level Edmonton Center
Sat 09:58:22 AM 49.4167 -114.4500 270° West 420 483 36,000  Level Edmonton Center
Sat 09:59:22 AM 49.4333 -114.6167 279° West 420 483 36,000  Level Edmonton Center
Sat 10:00:22 AM 49.4500 -114.8333 277° West 420 483 36,000  Level Edmonton Center
Sat 10:01:22 AM 49.4500 -114.9833 270° West 420 483 36,000  Level Edmonton Center
Sat 10:02:22 AM 49.4667 -115.1667 278° West 420 483 36,000  Level Edmonton Center
Sat 10:03:22 AM 49.4667 -115.3500 270° West 420 483 36,000  Level Edmonton Center
Sat 10:04:22 AM 49.4833 -115.5333 278° West 420 483 36,000  Level Edmonton Center
Sat 10:05:22 AM 49.5000 -115.7000 279° West 410 472 36,000  Level Edmonton Center
Sat 10:06:22 AM 49.5000 -115.8833 270° West 420 483 36,000  Level Edmonton Center
Sat 10:07:22 AM 49.5167 -116.0667 278° West 420 483 36,000  Level Edmonton Center
Sat 10:08:22 AM 49.5167 -116.2500 270° West 420 483 36,000  Level Edmonton Center
Sat 10:09:22 AM 49.5167 -116.4333 270° West 410 472 36,000  Level Edmonton Center
Sat 10:10:22 AM 49.5167 -116.6000 270° West 420 483 36,000  Level Edmonton Center
Sat 10:11:22 AM 49.5333 -116.8000 277° West 420 483 36,000  Level Edmonton Center
Sat 10:12:22 AM 49.5333 -116.9667 270° West 420 483 36,000  Level Edmonton Center
Sat 10:13:22 AM 49.5167 -117.1500 262° West 420 483 36,000  Level Edmonton Center
Sat 10:14:22 AM 49.5167 -117.3333 270° West 420 483 36,000  Level Edmonton Center
Sat 10:15:22 AM 49.5167 -117.5167 270° West 420 483 36,000  Level Edmonton Center
Sat 10:16:22 AM 49.5167 -117.7000 270° West 420 483 36,000  Level Edmonton Center
Sat 10:17:22 AM 49.5000 -117.8500 260° West 420 483 36,000  Level Edmonton Center
Sat 10:18:22 AM 49.5000 -118.0333 270° West 420 483 36,000  Level Edmonton Center
Sat 10:19:40 AM 49.5167 -118.2167 278° West 420 483 36,000  Level Vancouver Center
Sat 10:20:40 AM 49.5333 -118.4000 278° West 420 483 36,000  Level Vancouver Center
Sat 10:21:40 AM 49.5167 -118.5833 262° West 410 472 36,000  Level Vancouver Center
Sat 10:22:40 AM 49.5167 -118.7500 270° West 410 472 36,000  Level Vancouver Center
Sat 10:23:40 AM 49.5167 -118.9333 270° West 410 472 36,000  Level Vancouver Center
Sat 10:24:40 AM 49.5000 -119.1000 261° West 410 472 36,000  Level Vancouver Center
Sat 10:25:40 AM 49.5000 -119.2667 270° West 410 472 36,000  Level Vancouver Center
Sat 10:26:40 AM 49.5000 -119.4500 270° West 410 472 36,000  Level Vancouver Center
Sat 10:27:40 AM 49.5000 -119.6167 270° West 410 472 36,000  Level Vancouver Center
Sat 10:28:40 AM 49.4833 -119.7833 261° West 400 460 36,000  Level Vancouver Center
Sat 10:29:40 AM 49.4833 -119.9667 270° West 410 472 36,000  Level Vancouver Center
Sat 10:30:40 AM 49.4833 -120.1500 270° West 410 472 36,000 -300 Level Vancouver Center
Sat 10:31:40 AM 49.4833 -120.3000 270° West 400 460 35,400 -800 Descending Vancouver Center
Sat 10:32:40 AM 49.4833 -120.4833 270° West 400 460 34,400 -1,100 Descending Vancouver Center
Sat 10:33:40 AM 49.5000 -120.6667 278° West 390 449 33,200 -1,600 Descending Vancouver Center
Sat 10:34:40 AM 49.5000 -120.8167 270° West 380 437 31,200 -2,050 Descending Vancouver Center
Sat 10:35:40 AM 49.5000 -120.9667 270° West 380 437 29,100 -2,150 Descending Vancouver Center
Sat 10:36:40 AM 49.5000 -121.1333 270° West 360 414 26,900 -1,950 Descending Vancouver Center
Sat 10:37:40 AM 49.5167 -121.2833 280° West 350 403 25,200 -1,850 Descending Vancouver Center
Sat 10:38:40 AM 49.5000 -121.4333 260° West 340 391 23,200 -1,950 Descending Vancouver Center
Sat 10:39:40 AM 49.5000 -121.5667 270° West 330 380 21,300 -1,850 Descending Vancouver Center
Sat 10:40:40 AM 49.5000 -121.7167 270° West 320 368 19,500 -1,750 Descending Vancouver Center
Sat 10:41:40 AM 49.5000 -121.8500 270° West 310 357 17,800 -1,900 Descending Vancouver Center
Sat 10:42:40 AM 49.5000 -121.9667 270° West 300 345 15,700 -2,200 Descending Vancouver Center
Sat 10:43:40 AM 49.5000 -122.1000 270° West 300 345 13,400 -1,900 Descending Vancouver Center
Sat 10:44:40 AM 49.4500 -122.1833 227° Southwest 300 345 11,900 -1,600 Descending Vancouver Center
Sat 10:45:40 AM 49.4000 -122.3167 240° Southwest 290 334 10,200 -1,500 Descending Vancouver Center
Sat 10:46:40 AM 49.3500 -122.3833 221° Southwest 280 322 8,900 -650 Descending Vancouver Center
Sat 10:47:40 AM 49.3000 -122.4667 227° Southwest 260 299 8,900 -950 Level Vancouver Center
Sat 10:48:40 AM 49.2500 -122.5667 233° Southwest 260 299 7,000 -1,650 Descending Vancouver Center
Sat 10:49:40 AM 49.2167 -122.6500 239° Southwest 270 311 5,600 -1,500 Descending Vancouver Center
Sat 10:50:40 AM 49.1667 -122.7333 227° Southwest 260 299 4,000 -1,150 Descending Vancouver Center
Sat 10:51:40 AM 49.1500 -122.8333 256° West 240 276 3,300 -500 Descending Vancouver Center
Sat 10:52:40 AM 49.1500 -122.9000 270° West 210 242 3,000 -600 Descending Vancouver Center
Sat 10:53:40 AM 49.1667 -123.0000 284° West 190 219 2,100 -900 Descending Vancouver Center
Sat 10:54:40 AM 49.1667 -123.0667 270° West 170 196 1,200 -850 Descending Vancouver Center
Sat 10:55:40 AM 49.1833 -123.1333 291° West 150 173 400 -800 Descending Vancouver Center

Login

Don't have an account? Register now (free) for customized features, flight alerts, and more!